createdAt,value
2018-04-13T00:02:24.948Z,32.20
2018-04-13T00:04:53.021Z,31.97
2018-04-13T00:07:21.113Z,30.03
2018-04-13T00:09:49.203Z,29.20
2018-04-13T00:12:17.245Z,31.83
2018-04-13T00:14:45.327Z,36.67
2018-04-13T00:17:13.381Z,34.70
2018-04-13T00:19:41.452Z,44.53
2018-04-13T00:22:09.517Z,33.50
2018-04-13T00:24:37.607Z,41.20
2018-04-13T00:27:05.680Z,37.00
2018-04-13T00:29:33.739Z,39.57
2018-04-13T00:32:01.808Z,36.13
2018-04-13T00:34:29.890Z,40.20
2018-04-13T00:36:57.962Z,46.17
2018-04-13T00:39:26.045Z,43.53
2018-04-13T00:41:54.101Z,46.53
2018-04-13T00:44:22.173Z,44.60
2018-04-13T00:46:50.230Z,45.43
2018-04-13T00:49:18.338Z,51.50
2018-04-13T00:51:46.375Z,41.20
2018-04-13T00:54:14.449Z,49.40
2018-04-13T00:56:42.528Z,44.50
2018-04-13T00:59:10.606Z,42.93
2018-04-13T01:01:38.656Z,46.93
2018-04-13T01:04:06.715Z,47.93
2018-04-13T01:06:34.800Z,49.03
2018-04-13T01:09:02.857Z,45.40
2018-04-13T01:11:30.924Z,45.10
2018-04-13T01:13:58.967Z,47.03
2018-04-13T01:16:27.074Z,49.97
2018-04-13T01:18:55.137Z,47.67
2018-04-13T01:21:23.205Z,55.57
2018-04-13T01:23:51.305Z,57.83
2018-04-13T01:26:19.346Z,49.80
2018-04-13T01:28:47.487Z,51.47
2018-04-13T01:31:15.514Z,46.17
2018-04-13T01:33:43.562Z,48.47
2018-04-13T01:36:11.708Z,51.97
2018-04-13T01:38:39.713Z,51.30
2018-04-13T01:41:07.775Z,50.57
2018-04-13T01:43:36.581Z,52.83
2018-04-13T01:46:04.647Z,54.30
2018-04-13T01:48:32.810Z,49.20
2018-04-13T01:51:00.843Z,55.67
2018-04-13T01:53:28.898Z,55.50
2018-04-13T01:55:57.010Z,57.30
2018-04-13T01:58:25.037Z,50.97
2018-04-13T02:00:53.110Z,48.07
2018-04-13T02:03:21.189Z,53.83
2018-04-13T02:05:49.248Z,52.20
2018-04-13T02:08:17.323Z,52.67
2018-04-13T02:10:45.392Z,49.67
2018-04-13T02:13:14.227Z,59.27
2018-04-13T02:15:42.305Z,53.10
2018-04-13T02:18:11.141Z,56.40
2018-04-13T02:20:39.174Z,53.67
2018-04-13T02:23:07.278Z,53.77
2018-04-13T02:25:35.326Z,49.20
2018-04-13T02:28:03.402Z,61.67
2018-04-13T02:30:31.537Z,60.97
2018-04-13T02:32:59.617Z,59.27
2018-04-13T02:35:28.473Z,58.13
2018-04-13T02:37:56.527Z,53.20
2018-04-13T02:40:24.581Z,57.70
2018-04-13T02:42:52.669Z,53.63
2018-04-13T02:45:20.772Z,50.50
2018-04-13T02:47:48.851Z,58.83
2018-04-13T02:50:18.436Z,59.40
2018-04-13T02:52:46.882Z,59.07
2018-04-13T02:55:15.381Z,56.53
2018-04-13T02:57:43.789Z,70.50
2018-04-13T03:00:11.886Z,55.77
2018-04-13T03:02:40.705Z,68.73
2018-04-13T03:05:08.796Z,62.57
2018-04-13T03:07:36.935Z,60.33
2018-04-13T03:10:04.918Z,60.73
2018-04-13T03:12:32.964Z,63.27
2018-04-13T03:15:01.842Z,61.50
2018-04-13T03:17:29.906Z,60.97
2018-04-13T03:19:57.985Z,56.60
2018-04-13T03:22:26.798Z,61.33
2018-04-13T03:24:56.209Z,57.83
2018-04-13T03:27:24.243Z,60.27
2018-04-13T03:29:52.321Z,65.40
2018-04-13T03:32:21.136Z,60.07
2018-04-13T03:34:49.219Z,57.67
2018-04-13T03:37:17.271Z,67.60
2018-04-13T03:39:46.178Z,62.13
2018-04-13T03:42:15.926Z,61.17
2018-04-13T03:44:44.012Z,68.77
2018-04-13T03:47:12.103Z,65.47
2018-04-13T03:49:40.163Z,66.90
2018-04-13T03:52:08.985Z,67.93
2018-04-13T03:54:37.054Z,64.30
2018-04-13T03:57:06.463Z,64.83
2018-04-13T03:59:34.526Z,67.57
2018-04-13T04:02:02.592Z,70.53
2018-04-13T04:04:30.767Z,69.10
2018-04-13T04:06:58.782Z,65.47
2018-04-13T04:09:26.891Z,71.43
2018-04-13T04:11:54.921Z,70.60
2018-04-13T04:14:23.024Z,61.60
2018-04-13T04:16:51.126Z,65.67
2018-04-13T04:19:26.430Z,72.37
2018-04-13T04:22:06.499Z,65.57
2018-04-13T04:24:48.155Z,57.50
2018-04-13T04:27:16.220Z,68.33
2018-04-13T04:29:44.279Z,66.60
2018-04-13T04:32:12.346Z,62.60
2018-04-13T04:34:40.393Z,68.07
2018-04-13T04:37:08.513Z,62.50
2018-04-13T04:39:37.083Z,65.70
2018-04-13T04:42:05.153Z,64.67
2018-04-13T04:44:33.182Z,68.13
2018-04-13T04:47:01.286Z,67.97
2018-04-13T04:49:29.347Z,68.07
2018-04-13T04:51:57.448Z,69.23
2018-04-13T04:54:25.509Z,63.87
2018-04-13T04:56:53.617Z,68.27
2018-04-13T04:59:21.694Z,69.97
2018-04-13T05:01:49.749Z,67.20
2018-04-13T05:04:17.826Z,67.80
2018-04-13T05:06:45.879Z,66.83
2018-04-13T05:09:13.929Z,71.73
2018-04-13T05:11:42.014Z,65.77
2018-04-13T05:14:10.491Z,65.27
2018-04-13T05:16:38.571Z,62.87
2018-04-13T05:19:06.633Z,65.73
2018-04-13T05:21:34.685Z,59.57
2018-04-13T05:24:02.820Z,59.23
2018-04-13T05:26:30.860Z,67.40
2018-04-13T05:28:58.962Z,59.90
2018-04-13T05:31:26.997Z,57.20
2018-04-13T05:33:55.043Z,54.67
2018-04-13T05:36:23.135Z,57.30
2018-04-13T05:38:51.209Z,55.10
2018-04-13T05:41:19.258Z,57.80
2018-04-13T05:43:47.363Z,58.10
2018-04-13T05:46:15.438Z,58.67
2018-04-13T05:48:43.512Z,53.10
2018-04-13T05:51:11.557Z,57.47
2018-04-13T05:53:39.638Z,58.90
2018-04-13T05:56:08.101Z,52.87
2018-04-13T05:58:36.141Z,53.10
2018-04-13T06:01:05.077Z,59.20
2018-04-13T06:03:33.153Z,47.77
2018-04-13T06:06:01.195Z,52.77
2018-04-13T06:08:30.036Z,55.30
2018-04-13T06:10:58.091Z,49.97
2018-04-13T06:13:26.238Z,47.40
2018-04-13T06:15:54.226Z,54.70
2018-04-13T06:18:22.303Z,55.10
2018-04-13T06:20:50.434Z,55.03
2018-04-13T06:23:18.455Z,62.97
2018-04-13T06:25:47.315Z,49.33
2018-04-13T06:28:15.395Z,59.80
2018-04-13T06:30:43.495Z,58.53
2018-04-13T06:33:11.553Z,65.53
2018-04-13T06:35:39.637Z,51.20
2018-04-13T06:38:08.511Z,48.00
2018-04-13T06:40:36.562Z,49.20
2018-04-13T06:43:05.233Z,47.33
2018-04-13T06:45:34.058Z,51.70
2018-04-13T06:48:02.157Z,53.73
2018-04-13T06:50:31.016Z,57.83
2018-04-13T06:52:59.697Z,56.33
2018-04-13T06:55:28.481Z,56.73
2018-04-13T06:57:56.627Z,48.47
2018-04-13T07:00:24.799Z,63.33
2018-04-13T07:02:52.878Z,56.77
2018-04-13T07:05:21.734Z,56.67
2018-04-13T07:07:49.762Z,55.30
2018-04-13T07:10:17.843Z,49.93
2018-04-13T07:12:45.884Z,48.97
2018-04-13T07:15:14.646Z,57.27
2018-04-13T07:17:43.509Z,52.10
2018-04-13T07:20:11.555Z,52.30
2018-04-13T07:22:39.651Z,54.70
2018-04-13T07:25:07.800Z,54.60
2018-04-13T07:27:35.823Z,53.93
2018-04-13T07:30:04.667Z,57.10
2018-04-13T07:32:33.916Z,49.40
2018-04-13T07:35:01.923Z,49.47
2018-04-13T07:37:30.968Z,53.70
2018-04-13T07:39:59.605Z,50.57
2018-04-13T07:42:27.649Z,53.60
2018-04-13T07:44:55.728Z,57.67
2018-04-13T07:47:24.317Z,56.77
2018-04-13T07:49:52.477Z,55.80
2018-04-13T07:52:20.523Z,57.03
2018-04-13T07:54:48.583Z,51.40
2018-04-13T07:57:16.638Z,57.93
2018-04-13T07:59:45.339Z,51.50
2018-04-13T08:02:12.771Z,53.87
2018-04-13T08:04:40.949Z,62.37
2018-04-13T08:07:08.878Z,64.27
2018-04-13T08:09:36.966Z,58.23
2018-04-13T08:12:05.012Z,55.77
2018-04-13T08:14:33.868Z,60.17
2018-04-13T08:17:01.914Z,62.10
2018-04-13T08:19:29.994Z,60.60
2018-04-13T08:21:58.067Z,59.23
2018-04-13T08:24:26.147Z,52.77
2018-04-13T08:26:54.210Z,60.50
2018-04-13T08:29:22.296Z,58.87
2018-04-13T08:31:50.422Z,60.63
2018-04-13T08:34:18.434Z,57.97
2018-04-13T08:36:46.501Z,56.63
2018-04-13T08:39:15.311Z,62.73
2018-04-13T08:41:43.350Z,64.30
2018-04-13T08:44:11.947Z,53.97
2018-04-13T08:46:40.057Z,54.70
2018-04-13T08:49:08.202Z,64.33
2018-04-13T08:51:36.185Z,61.80
2018-04-13T08:54:04.285Z,55.90
2018-04-13T08:56:32.330Z,62.67
2018-04-13T08:59:00.370Z,61.47
2018-04-13T09:01:28.474Z,56.60
2018-04-13T09:03:56.568Z,56.80
2018-04-13T09:06:24.673Z,50.90
2018-04-13T09:08:53.471Z,50.50
2018-04-13T09:11:21.534Z,63.90
2018-04-13T09:13:49.667Z,75.77
2018-04-13T09:16:17.709Z,67.00
2018-04-13T09:18:45.802Z,71.80
2018-04-13T09:21:13.843Z,59.40
2018-04-13T09:23:41.961Z,58.87
2018-04-13T09:26:11.373Z,62.30
2018-04-13T09:28:40.114Z,63.43
2018-04-13T09:31:08.171Z,57.83
2018-04-13T09:33:36.268Z,65.70
2018-04-13T09:36:05.106Z,63.60
2018-04-13T09:38:33.175Z,58.10
2018-04-13T09:41:01.287Z,70.83
2018-04-13T09:43:29.337Z,62.27
2018-04-13T09:45:57.387Z,61.90
2018-04-13T09:48:25.453Z,58.70
2018-04-13T09:50:54.361Z,55.47
2018-04-13T09:53:22.446Z,53.93
2018-04-13T09:55:50.522Z,52.17
2018-04-13T09:58:18.589Z,53.20
2018-04-13T10:00:46.653Z,71.03
2018-04-13T10:03:20.689Z,55.20
2018-04-13T10:05:48.783Z,68.20
2018-04-13T10:08:17.618Z,55.37
2018-04-13T10:10:45.681Z,49.70
2018-04-13T10:13:13.771Z,64.57
2018-04-13T10:15:41.911Z,52.57
2018-04-13T10:18:10.707Z,50.03
2018-04-13T10:20:38.750Z,53.57
2018-04-13T10:23:07.586Z,54.53
2018-04-13T10:25:35.680Z,64.00
2018-04-13T10:28:03.743Z,49.93
2018-04-13T10:30:31.799Z,53.10
2018-04-13T10:32:59.847Z,53.53
2018-04-13T10:35:28.011Z,59.60
2018-04-13T10:37:56.063Z,57.13
2018-04-13T10:40:24.918Z,52.10
2018-04-13T10:42:52.986Z,56.70
2018-04-13T10:45:21.057Z,59.10
2018-04-13T10:47:49.181Z,53.87
2018-04-13T10:50:17.604Z,65.23
2018-04-13T10:52:45.736Z,71.77
2018-04-13T10:55:13.803Z,61.80
2018-04-13T10:57:42.618Z,62.20
2018-04-13T11:00:10.718Z,61.10
2018-04-13T11:02:38.789Z,55.83
2018-04-13T11:05:06.846Z,57.90
2018-04-13T11:07:34.984Z,61.27
2018-04-13T11:10:03.158Z,66.00
2018-04-13T11:12:31.174Z,89.70
2018-04-13T11:14:59.243Z,68.27
2018-04-13T11:17:27.316Z,63.27
2018-04-13T11:19:55.378Z,71.23
2018-04-13T11:22:23.458Z,72.03
2018-04-13T11:24:52.324Z,66.30
2018-04-13T11:27:21.131Z,59.17
2018-04-13T11:29:49.582Z,56.90
2018-04-13T11:32:17.669Z,61.57
2018-04-13T11:34:46.490Z,57.23
2018-04-13T11:37:16.066Z,172.27
2018-04-13T11:39:44.160Z,63.57
2018-04-13T11:42:12.216Z,82.13
2018-04-13T11:44:40.279Z,58.13
2018-04-13T11:47:08.415Z,53.83
2018-04-13T11:49:37.247Z,56.23
2018-04-13T11:52:05.300Z,62.43
2018-04-13T11:54:33.360Z,71.73
2018-04-13T11:57:01.409Z,68.23
2018-04-13T11:59:29.490Z,56.30
2018-04-13T12:01:58.301Z,59.10
2018-04-13T12:04:27.718Z,61.03
2018-04-13T12:06:56.450Z,63.60
2018-04-13T12:09:24.906Z,60.60
2018-04-13T12:11:52.978Z,60.67
2018-04-13T12:14:21.082Z,61.20
2018-04-13T12:16:49.939Z,61.70
2018-04-13T12:19:18.011Z,79.77
2018-04-13T12:21:46.077Z,57.70
2018-04-13T12:24:14.170Z,56.80
2018-04-13T12:26:42.247Z,56.40
2018-04-13T12:29:10.339Z,57.63
2018-04-13T12:31:39.319Z,52.97
2018-04-13T12:34:07.777Z,69.40
2018-04-13T12:36:35.835Z,83.57
2018-04-13T12:39:04.682Z,63.43
2018-04-13T12:41:32.736Z,53.43
2018-04-13T12:44:01.591Z,57.80
2018-04-13T12:46:29.714Z,61.80
2018-04-13T12:48:58.600Z,59.57
2018-04-13T12:51:29.209Z,58.60
2018-04-13T12:53:57.379Z,58.80
2018-04-13T12:56:25.487Z,60.03
2018-04-13T12:58:53.552Z,58.17
2018-04-13T13:01:22.450Z,59.10
2018-04-13T13:03:50.509Z,66.87
2018-04-13T13:06:19.335Z,62.20
2018-04-13T13:08:47.450Z,72.17
2018-04-13T13:11:15.446Z,65.90
2018-04-13T13:13:43.630Z,64.90
2018-04-13T13:16:11.692Z,63.83
2018-04-13T13:18:40.380Z,64.80
2018-04-13T13:21:11.173Z,67.73
2018-04-13T13:23:39.138Z,69.13
2018-04-13T13:26:07.239Z,65.47
2018-04-13T13:28:36.063Z,74.57
2018-04-13T13:31:04.195Z,68.60
2018-04-13T13:33:32.242Z,66.33
2018-04-13T13:36:00.313Z,69.03
2018-04-13T13:38:28.366Z,68.80
2018-04-13T13:40:56.438Z,75.27
2018-04-13T13:43:24.522Z,74.73
2018-04-13T13:45:53.334Z,81.50
2018-04-13T13:48:21.453Z,75.40
2018-04-13T13:50:50.261Z,81.67
2018-04-13T13:53:21.000Z,78.73
2018-04-13T13:55:50.571Z,74.50
2018-04-13T13:58:20.100Z,77.03
2018-04-13T14:00:48.910Z,81.63
2018-04-13T14:03:16.995Z,85.90
2018-04-13T14:05:45.061Z,80.13
2018-04-13T14:08:14.177Z,74.70
2018-04-13T14:10:43.247Z,80.77
2018-04-13T14:13:16.668Z,79.50
2018-04-13T14:15:45.430Z,93.53
2018-04-13T14:18:13.498Z,78.90
2018-04-13T14:20:42.004Z,85.57
2018-04-13T14:23:12.253Z,78.53
2018-04-13T14:25:42.136Z,92.87
2018-04-13T14:28:11.129Z,89.90
2018-04-13T14:30:39.271Z,77.67
2018-04-13T14:33:08.186Z,72.50
2018-04-13T14:35:36.237Z,72.60
2018-04-13T14:38:07.857Z,71.07
2018-04-13T14:40:36.544Z,77.63
2018-04-13T14:43:05.072Z,71.57
2018-04-13T14:45:33.139Z,82.17
2018-04-13T14:48:02.045Z,74.33
2018-04-13T14:50:30.144Z,87.30
2018-04-13T14:52:59.178Z,81.40
2018-04-13T14:55:27.284Z,73.73
2018-04-13T14:57:55.351Z,77.93
2018-04-13T15:00:27.453Z,72.00
2018-04-13T15:02:56.259Z,78.80
2018-04-13T15:05:25.057Z,72.87
2018-04-13T15:07:55.706Z,72.83
2018-04-13T15:10:25.166Z,77.63
2018-04-13T15:12:55.530Z,68.50
2018-04-13T15:15:24.752Z,71.57
2018-04-13T15:17:52.843Z,65.60
2018-04-13T15:20:23.059Z,63.43
2018-04-13T15:22:51.161Z,64.93
2018-04-13T15:25:19.264Z,67.40
2018-04-13T15:27:47.309Z,67.27
2018-04-13T15:30:15.387Z,67.73
2018-04-13T15:32:43.449Z,71.37
2018-04-13T15:35:11.522Z,65.73
2018-04-13T15:37:39.619Z,65.40
2018-04-13T15:40:07.663Z,62.90
2018-04-13T15:42:37.021Z,69.53
2018-04-13T15:45:05.111Z,65.57
2018-04-13T15:47:33.921Z,69.27
2018-04-13T15:50:02.002Z,70.27
2018-04-13T15:52:30.062Z,78.07
2018-04-13T15:54:58.227Z,76.93
2018-04-13T15:57:26.693Z,75.40
2018-04-13T15:59:54.798Z,88.30
2018-04-13T16:02:22.834Z,73.57
2018-04-13T16:04:50.890Z,77.00
2018-04-13T16:07:20.136Z,70.37
2018-04-13T16:09:48.207Z,65.10
2018-04-13T16:12:16.280Z,67.97
2018-04-13T16:14:44.322Z,64.90
2018-04-13T16:17:13.143Z,65.53
2018-04-13T16:19:42.132Z,66.97
2018-04-13T16:22:11.575Z,63.40
2018-04-13T16:24:40.185Z,72.27
2018-04-13T16:27:08.263Z,76.73
2018-04-13T16:29:36.330Z,74.47
2018-04-13T16:32:04.414Z,83.10
2018-04-13T16:34:33.226Z,89.57
2018-04-13T16:37:01.285Z,89.60
2018-04-13T16:39:30.491Z,89.93
2018-04-13T16:41:58.567Z,90.90
2018-04-13T16:44:26.630Z,95.00
2018-04-13T16:46:55.461Z,90.13
2018-04-13T16:49:24.056Z,85.17
2018-04-13T16:51:54.722Z,89.70
2018-04-13T16:54:23.956Z,86.97
2018-04-13T16:56:52.002Z,86.23
2018-04-13T16:59:20.870Z,89.90
2018-04-13T17:01:49.879Z,85.33
2018-04-13T17:04:18.777Z,77.23
2018-04-13T17:06:46.817Z,85.00
2018-04-13T17:09:15.734Z,97.30
2018-04-13T17:11:43.807Z,88.70
2018-04-13T17:14:11.895Z,85.80
2018-04-13T17:16:40.358Z,80.03
2018-04-13T17:19:08.494Z,67.83
2018-04-13T17:21:36.618Z,64.67
2018-04-13T17:24:07.727Z,65.37
2018-04-13T17:26:36.617Z,56.43
2018-04-13T17:29:04.722Z,64.60
2018-04-13T17:31:36.941Z,61.37
2018-04-13T17:34:10.175Z,53.67
2018-04-13T17:36:40.115Z,58.43
2018-04-13T17:39:09.088Z,57.00
2018-04-13T17:41:37.937Z,55.77
2018-04-13T17:44:09.896Z,56.40
2018-04-13T17:46:37.980Z,56.60
2018-04-13T17:49:07.555Z,56.57
2018-04-13T17:51:36.433Z,63.30
2018-04-13T17:54:05.021Z,65.80
2018-04-13T17:56:34.000Z,55.47
2018-04-13T17:59:02.909Z,58.20
2018-04-13T18:01:31.944Z,57.93
2018-04-13T18:04:00.354Z,47.40
2018-04-13T18:06:30.800Z,43.80
2018-04-13T18:08:59.034Z,32.33
2018-04-13T18:11:28.561Z,65.43
2018-04-13T18:13:56.787Z,29.93
2018-04-13T18:16:26.772Z,26.90
2018-04-13T18:18:54.874Z,28.03
2018-04-13T18:21:23.098Z,25.90
2018-04-13T18:23:51.169Z,29.27
2018-04-13T18:26:19.259Z,25.27
2018-04-13T18:28:47.434Z,24.77
2018-04-13T18:31:15.508Z,26.13
2018-04-13T18:33:43.572Z,31.23
2018-04-13T18:36:11.692Z,26.33
2018-04-13T18:38:39.826Z,24.50
2018-04-13T18:41:11.810Z,27.60
2018-04-13T18:43:40.848Z,23.13
2018-04-13T18:46:08.897Z,24.17
2018-04-13T18:48:37.730Z,26.10
2018-04-13T18:51:06.409Z,26.00
2018-04-13T18:53:34.520Z,31.17
2018-04-13T18:56:02.596Z,26.07
2018-04-13T18:58:30.807Z,27.27
2018-04-13T19:01:00.318Z,26.87
2018-04-13T19:03:29.592Z,27.43
2018-04-13T19:05:57.694Z,31.23
2018-04-13T19:08:27.239Z,27.90
2018-04-13T19:10:55.396Z,26.37
2018-04-13T19:13:23.651Z,29.93
2018-04-13T19:15:52.998Z,24.93
2018-04-13T19:18:22.074Z,35.20
2018-04-13T19:20:52.116Z,33.63
2018-04-13T19:23:20.265Z,30.83
2018-04-13T19:25:49.337Z,29.43
2018-04-13T19:28:19.289Z,32.37
2018-04-13T19:30:49.318Z,33.43
2018-04-13T19:33:18.543Z,29.13
2018-04-13T19:35:46.734Z,30.93
2018-04-13T19:38:16.297Z,32.67
2018-04-13T19:40:44.344Z,30.70
2018-04-13T19:43:12.448Z,31.23
2018-04-13T19:45:40.556Z,31.03
2018-04-13T19:48:09.378Z,34.10
2018-04-13T19:50:37.641Z,32.20
2018-04-13T19:53:06.095Z,34.60
2018-04-13T19:55:35.706Z,28.30
2018-04-13T19:58:04.959Z,35.90
2018-04-13T20:00:37.005Z,34.40
2018-04-13T20:03:05.094Z,30.50
2018-04-13T20:05:33.130Z,38.50
2018-04-13T20:08:01.196Z,35.57
2018-04-13T20:10:29.231Z,32.37
2018-04-13T20:12:57.307Z,34.37
2018-04-13T20:15:25.420Z,30.07
2018-04-13T20:17:55.045Z,34.70
2018-04-13T20:20:23.144Z,36.67
2018-04-13T20:22:51.211Z,31.90
2018-04-13T20:25:19.251Z,33.53
2018-04-13T20:27:47.331Z,33.90
2018-04-13T20:30:15.401Z,34.57
2018-04-13T20:32:43.449Z,34.33
2018-04-13T20:35:11.551Z,36.00
2018-04-13T20:37:39.647Z,40.67
2018-04-13T20:40:07.725Z,42.20
2018-04-13T20:42:35.777Z,44.53
2018-04-13T20:45:03.901Z,42.27
2018-04-13T20:47:31.995Z,46.07
2018-04-13T20:50:00.086Z,43.13
2018-04-13T20:52:28.121Z,42.87
2018-04-13T20:54:56.258Z,45.77
2018-04-13T20:57:24.346Z,46.40
2018-04-13T20:59:53.159Z,45.20
2018-04-13T21:02:21.227Z,58.60
2018-04-13T21:04:49.282Z,88.80
2018-04-13T21:07:18.137Z,55.33
2018-04-13T21:09:46.225Z,48.83
2018-04-13T21:12:14.321Z,60.80
2018-04-13T21:14:43.128Z,51.07
2018-04-13T21:17:11.189Z,116.33
2018-04-13T21:19:39.238Z,61.37
2018-04-13T21:22:07.361Z,55.00
2018-04-13T21:24:35.459Z,56.30
2018-04-13T21:27:03.914Z,72.30
2018-04-13T21:29:32.033Z,77.93
2018-04-13T21:32:01.565Z,88.03
2018-04-13T21:34:29.634Z,101.20
2018-04-13T21:36:57.694Z,106.50
2018-04-13T21:39:26.486Z,93.97
2018-04-13T21:41:54.599Z,106.47
2018-04-13T21:44:22.613Z,116.57
2018-04-13T21:46:52.838Z,122.63
2018-04-13T21:49:21.791Z,120.23
2018-04-13T21:51:50.715Z,111.23
2018-04-13T21:54:18.746Z,111.63
2018-04-13T21:56:46.857Z,109.53
2018-04-13T21:59:14.906Z,112.80
2018-04-13T22:01:42.994Z,122.20
2018-04-13T22:04:11.070Z,127.90
2018-04-13T22:06:39.914Z,118.83
2018-04-13T22:09:08.014Z,136.97
2018-04-13T22:11:36.067Z,125.20
2018-04-13T22:14:16.080Z,134.23
2018-04-13T22:16:44.897Z,131.50
2018-04-13T22:19:12.971Z,136.30
2018-04-13T22:21:41.016Z,161.37
2018-04-13T22:24:09.477Z,150.87
2018-04-13T22:26:37.978Z,130.13
2018-04-13T22:29:06.864Z,130.03
2018-04-13T22:31:36.046Z,150.80
2018-04-13T22:34:04.114Z,134.33
2018-04-13T22:36:34.013Z,141.07
2018-04-13T22:39:02.062Z,131.23
2018-04-13T22:41:30.161Z,148.20
2018-04-13T22:43:58.566Z,136.57
2018-04-13T22:46:27.317Z,140.33
2018-04-13T22:48:55.382Z,138.10
2018-04-13T22:51:23.451Z,136.60
2018-04-13T22:53:51.506Z,132.00
2018-04-13T22:56:19.606Z,127.33
2018-04-13T22:58:47.667Z,127.97
2018-04-13T23:01:15.749Z,130.40
2018-04-13T23:03:43.855Z,125.10
2018-04-13T23:06:12.708Z,122.67
2018-04-13T23:08:40.771Z,125.27
2018-04-13T23:11:08.840Z,128.90
2018-04-13T23:13:36.914Z,129.07
2018-04-13T23:16:04.971Z,122.40
2018-04-13T23:18:33.070Z,125.20
2018-04-13T23:21:01.102Z,128.70
2018-04-13T23:23:29.970Z,123.07
2018-04-13T23:25:58.057Z,114.83
2018-04-13T23:28:26.174Z,108.80
2018-04-13T23:30:55.117Z,124.77
2018-04-13T23:33:23.202Z,108.00
2018-04-13T23:35:51.269Z,91.63
2018-04-13T23:38:19.427Z,99.43
2018-04-13T23:40:47.483Z,92.50
2018-04-13T23:43:16.320Z,102.60
2018-04-13T23:45:44.389Z,97.80
2018-04-13T23:48:12.452Z,100.27
2018-04-13T23:50:40.521Z,108.20
2018-04-13T23:53:08.588Z,105.47
2018-04-13T23:55:36.643Z,105.53
2018-04-13T23:58:05.100Z,96.80
